• Join FlightAware (Why Join?)
  • Login
  • US Flag 
06:39AM EDT


 

Airport Tracker/Info


-or-


 

Live Flight TrackerFlight Track Log ✈ EJA370 ✈ 13-May-2013 ✈ KSGR - KVCT

Flight Track Log - Related Links

Times and Time Zones

All times are in EDT time to prevent confusion due to time zone crossing. See the EJA370 flight status page for this flight to view local times or setup timezone preferences in your user account.

Time Position Orientation Groundspeed Altitude Reporting Facility
EDT Latitude Longitude Course Direction KTS MPH feet Rate Location/Type
05:18PM 29.6167 -95.6592 183° South 187 215 900  Level Houston Center
05:19PM 29.5747 -95.6617 183° South 200 230 2,000 1,080 Climbing Houston Center
05:20PM 29.5628 -95.6761 226° Southwest 247 284 2,100 2,640 Climbing Houston Center
05:20PM 29.5231 -95.7181 223° Southwest 257 296 4,700 2,760 Climbing Houston Center
05:21PM 29.5136 -95.7289 225° Southwest 245 282 5,000 240 Climbing Houston Center
05:21PM 29.4697 -95.7769 224° Southwest 275 316 5,000  Level Houston Center
05:22PM 29.4594 -95.7875 222° Southwest 263 303 5,000  Level Houston Center
05:23PM 29.4147 -95.8561 233° Southwest 270 311 5,000  Level Houston Center
05:24PM 29.3764 -95.9292 239° Southwest 269 310 5,000  Level Houston Center
05:25PM 29.3375 -96.0050 240° Southwest 262 302 5,000 420 Level Houston Center
05:26PM 29.2992 -96.0756 238° Southwest 261 300 5,900 480 Climbing Houston Center
05:27PM 29.2550 -96.1594 239° Southwest 257 296 6,100  Climbing Houston Center
05:28PM 29.2133 -96.2383 239° Southwest 280 322 6,000 -120 Descending Houston Center
05:29PM 29.1731 -96.3161 239° Southwest 284 327 5,900 -60 Descending Houston Center
05:30PM 29.1319 -96.3931 239° Southwest 283 326 5,900 -540 Level Houston Center
05:31PM 29.0919 -96.4697 239° Southwest 281 323 4,900 -1,260 Descending Houston Center
05:32PM 29.0522 -96.5428 238° Southwest 274 315 3,400 -1,380 Descending Houston Center
05:33PM 29.0247 -96.6214 248° West 270 311 2,100 -660 Descending Houston Center
05:34PM 28.9986 -96.7178 253° West 265 305 2,100  Level Houston Center
05:35PM 28.9758 -96.7981 252° West 265 305 2,100 -240 Level Houston Center
05:36PM 28.9531 -96.8772 252° West 263 303 1,700 -180 Descending Houston Center
05:37PM 28.9325 -96.9486 252° West 253 291 1,800 -360 Climbing Houston Center
05:38PM 28.8967 -96.9719 210° Southwest 204 235 1,000 -780 Descending Houston Center